createdAt,value
2019-06-01T00:01:40.348Z,70.13
2019-06-01T00:04:08.955Z,70.16
2019-06-01T00:06:38.559Z,70.20
2019-06-01T00:09:07.793Z,70.31
2019-06-01T00:11:36.252Z,70.57
2019-06-01T00:14:04.861Z,70.73
2019-06-01T00:16:33.394Z,70.85
2019-06-01T00:19:05.170Z,70.84
2019-06-01T00:21:33.635Z,70.70
2019-06-01T00:24:02.110Z,70.73
2019-06-01T00:26:30.587Z,70.67
2019-06-01T00:28:59.128Z,70.84
2019-06-01T00:31:27.889Z,70.83
2019-06-01T00:33:56.372Z,70.94
2019-06-01T00:36:25.116Z,70.98
2019-06-01T00:38:53.950Z,71.04
2019-06-01T00:41:22.474Z,71.16
2019-06-01T00:43:50.957Z,71.16
2019-06-01T00:46:19.449Z,71.06
2019-06-01T00:48:47.969Z,70.95
2019-06-01T00:51:24.703Z,71.00
2019-06-01T00:53:53.621Z,71.01
2019-06-01T00:56:22.085Z,71.41
2019-06-01T00:58:51.850Z,71.51
2019-06-01T01:01:20.579Z,71.39
2019-06-01T01:03:50.188Z,71.32
2019-06-01T01:06:18.859Z,71.23
2019-06-01T01:08:48.877Z,71.28
2019-06-01T01:11:17.533Z,71.32
2019-06-01T01:13:47.194Z,71.29
2019-06-01T01:16:15.807Z,71.29
2019-06-01T01:18:45.500Z,71.32
2019-06-01T01:21:14.143Z,71.35
2019-06-01T01:23:42.614Z,71.42
2019-06-01T01:26:11.160Z,71.56
2019-06-01T01:28:39.614Z,71.45
2019-06-01T01:31:13.790Z,71.50
2019-06-01T01:33:38.352Z,71.47
2019-06-01T01:36:06.847Z,71.34
2019-06-01T01:38:40.245Z,71.34
2019-06-01T01:41:08.658Z,71.34
2019-06-01T01:43:37.154Z,71.38
2019-06-01T01:46:05.633Z,71.49
2019-06-01T01:48:34.423Z,71.56
2019-06-01T01:51:03.289Z,71.59
2019-06-01T01:53:31.767Z,71.67
2019-06-01T01:56:01.211Z,71.76
2019-06-01T01:58:29.733Z,71.77
2019-06-01T02:00:58.870Z,71.88
2019-06-01T02:03:28.699Z,71.98
2019-06-01T02:05:57.507Z,72.01
2019-06-01T02:08:26.028Z,72.01
2019-06-01T02:10:55.419Z,72.04
2019-06-01T02:13:23.975Z,72.03
2019-06-01T02:15:54.102Z,72.02
2019-06-01T02:18:22.752Z,72.07
2019-06-01T02:20:52.284Z,72.06
2019-06-01T02:23:20.896Z,72.00
2019-06-01T02:25:49.403Z,71.95
2019-06-01T02:28:17.879Z,71.97
2019-06-01T02:30:46.576Z,71.97
2019-06-01T02:33:15.408Z,71.97
2019-06-01T02:35:43.904Z,72.02
2019-06-01T02:38:12.532Z,72.02
2019-06-01T02:40:41.013Z,71.98
2019-06-01T02:43:09.824Z,71.99
2019-06-01T02:45:38.311Z,71.85
2019-06-01T02:48:07.122Z,71.90
2019-06-01T02:50:35.629Z,72.02
2019-06-01T02:53:04.109Z,72.01
2019-06-01T02:55:32.843Z,72.00
2019-06-01T02:58:02.413Z,71.98
2019-06-01T03:01:12.044Z,72.01
2019-06-01T03:03:40.582Z,71.96
2019-06-01T03:06:09.047Z,71.92
2019-06-01T03:08:37.748Z,72.02
2019-06-01T03:11:06.285Z,72.00
2019-06-01T03:13:34.755Z,72.02
2019-06-01T03:16:03.716Z,72.06
2019-06-01T03:18:33.796Z,72.05
2019-06-01T03:21:04.685Z,72.08
2019-06-01T03:23:32.592Z,72.03
2019-06-01T03:26:02.101Z,72.03
2019-06-01T03:28:30.922Z,72.02
2019-06-01T03:31:01.076Z,71.99
2019-06-01T03:33:29.618Z,71.95
2019-06-01T03:35:58.102Z,71.97
2019-06-01T03:38:26.588Z,71.91
2019-06-01T03:40:55.234Z,71.97
2019-06-01T03:43:23.699Z,71.98
2019-06-01T03:45:52.191Z,71.93
2019-06-01T03:48:20.911Z,71.88
2019-06-01T03:50:49.372Z,71.88
2019-06-01T03:53:17.851Z,71.85
2019-06-01T03:55:46.344Z,71.87
2019-06-01T03:58:14.835Z,71.85
2019-06-01T04:00:43.351Z,71.88
2019-06-01T04:03:12.104Z,71.87
2019-06-01T04:05:41.233Z,71.92
2019-06-01T04:08:09.784Z,71.95
2019-06-01T04:10:38.258Z,71.95
2019-06-01T04:13:07.561Z,71.91
2019-06-01T04:15:36.101Z,71.91
2019-06-01T04:18:05.970Z,71.92
2019-06-01T04:20:34.836Z,71.85
2019-06-01T04:23:04.553Z,71.76
2019-06-01T04:25:33.128Z,71.76
2019-06-01T04:28:02.157Z,71.69
2019-06-01T04:30:30.944Z,71.63
2019-06-01T04:32:59.440Z,71.55
2019-06-01T04:35:27.922Z,71.50
2019-06-01T04:37:56.400Z,71.39
2019-06-01T04:40:25.119Z,71.22
2019-06-01T04:42:53.874Z,71.19
2019-06-01T04:45:22.582Z,71.14
2019-06-01T04:47:51.296Z,71.12
2019-06-01T04:50:19.770Z,70.96
2019-06-01T04:52:48.512Z,70.91
2019-06-01T04:55:16.963Z,70.74
2019-06-01T04:57:45.434Z,70.78
2019-06-01T05:00:27.041Z,70.66
2019-06-01T05:02:44.164Z,70.66
2019-06-01T05:05:13.371Z,70.56
2019-06-01T05:07:42.120Z,70.65
2019-06-01T05:10:11.621Z,70.50
2019-06-01T05:12:40.198Z,70.44
2019-06-01T05:15:09.905Z,70.43
2019-06-01T05:17:38.396Z,70.41
2019-06-01T05:20:08.200Z,70.44
2019-06-01T05:22:36.770Z,70.39
2019-06-01T05:25:06.702Z,70.40
2019-06-01T05:27:35.376Z,70.40
2019-06-01T05:30:04.144Z,70.30
2019-06-01T05:32:32.648Z,70.24
2019-06-01T05:35:01.225Z,70.10
2019-06-01T05:37:29.694Z,69.97
2019-06-01T05:39:58.276Z,69.83
2019-06-01T05:42:26.753Z,69.60
2019-06-01T05:44:55.256Z,69.57
2019-06-01T05:47:24.005Z,69.39
2019-06-01T05:49:52.520Z,69.35
2019-06-01T05:52:20.994Z,69.34
2019-06-01T05:54:49.484Z,69.39
2019-06-01T05:57:19.332Z,69.16
2019-06-01T05:59:48.223Z,69.15
2019-06-01T06:02:17.482Z,69.00
2019-06-01T06:04:46.061Z,69.09
2019-06-01T06:07:14.804Z,68.94
2019-06-01T06:09:43.312Z,68.74
2019-06-01T06:12:13.110Z,68.43
2019-06-01T06:14:41.682Z,68.19
2019-06-01T06:17:13.773Z,68.12
2019-06-01T06:19:40.949Z,68.15
2019-06-01T06:22:09.446Z,68.25
2019-06-01T06:24:37.923Z,68.17
2019-06-01T06:27:06.410Z,67.89
2019-06-01T06:29:34.902Z,67.89
2019-06-01T06:32:03.442Z,67.75
2019-06-01T06:34:31.931Z,67.83
2019-06-01T06:37:00.421Z,67.74
2019-06-01T06:39:28.906Z,67.62
2019-06-01T06:41:57.652Z,67.60
2019-06-01T06:44:26.414Z,67.82
2019-06-01T06:46:54.941Z,67.74
2019-06-01T06:49:23.411Z,67.43
2019-06-01T06:51:51.964Z,67.00
2019-06-01T06:54:20.460Z,66.81
2019-06-01T06:56:48.948Z,66.93
2019-06-01T06:59:18.444Z,66.54
2019-06-01T07:01:47.162Z,66.67
2019-06-01T07:04:16.997Z,66.12
2019-06-01T07:06:45.694Z,66.05
2019-06-01T07:09:14.186Z,66.11
2019-06-01T07:11:42.692Z,66.02
2019-06-01T07:14:11.460Z,66.16
2019-06-01T07:16:39.962Z,66.29
2019-06-01T07:19:10.045Z,65.97
2019-06-01T07:21:38.543Z,66.26
2019-06-01T07:24:07.045Z,66.21
2019-06-01T07:26:35.566Z,66.23
2019-06-01T07:29:04.047Z,66.42
2019-06-01T07:31:32.795Z,66.34
2019-06-01T07:34:01.270Z,66.34
2019-06-01T07:36:29.774Z,66.37
2019-06-01T07:38:58.861Z,66.30
2019-06-01T07:41:28.820Z,66.05
2019-06-01T07:43:57.415Z,65.73
2019-06-01T07:46:26.896Z,65.71
2019-06-01T07:48:55.469Z,65.10
2019-06-01T07:51:25.184Z,65.12
2019-06-01T07:53:53.812Z,64.65
2019-06-01T07:56:22.843Z,64.71
2019-06-01T07:58:51.342Z,64.82
2019-06-01T08:01:19.837Z,64.42
2019-06-01T08:03:48.321Z,64.67
2019-06-01T08:06:16.811Z,64.44
2019-06-01T08:08:45.307Z,64.75
2019-06-01T08:11:13.795Z,64.73
2019-06-01T08:13:42.345Z,64.37
2019-06-01T08:16:10.836Z,64.43
2019-06-01T08:18:39.304Z,64.32
2019-06-01T08:21:07.779Z,64.02
2019-06-01T08:23:36.252Z,64.03
2019-06-01T08:26:04.763Z,63.97
2019-06-01T08:28:33.220Z,63.97
2019-06-01T08:31:01.719Z,63.90
2019-06-01T08:33:33.154Z,62.55
2019-06-01T08:36:01.555Z,63.23
2019-06-01T08:38:31.568Z,62.86
2019-06-01T08:41:00.176Z,62.47
2019-06-01T08:43:29.733Z,62.89
2019-06-01T08:45:58.327Z,62.98
2019-06-01T08:48:27.712Z,63.19
2019-06-01T08:50:56.160Z,63.28
2019-06-01T08:53:25.760Z,62.77
2019-06-01T08:55:54.212Z,63.07
2019-06-01T08:58:24.097Z,63.23
2019-06-01T09:00:52.672Z,62.75
2019-06-01T09:03:21.144Z,62.72
2019-06-01T09:05:49.643Z,62.65
2019-06-01T09:08:18.395Z,62.27
2019-06-01T09:10:46.875Z,62.09
2019-06-01T09:13:15.390Z,61.97
2019-06-01T09:15:44.277Z,61.99
2019-06-01T09:18:12.870Z,62.00
2019-06-01T09:20:41.409Z,61.25
2019-06-01T09:23:09.914Z,61.95
2019-06-01T09:25:38.411Z,61.67
2019-06-01T09:28:06.906Z,61.40
2019-06-01T09:30:36.264Z,61.39
2019-06-01T09:33:04.944Z,61.75
2019-06-01T09:35:53.616Z,61.45
2019-06-01T09:38:03.908Z,61.08
2019-06-01T09:40:33.548Z,60.98
2019-06-01T09:43:02.590Z,61.11
2019-06-01T09:45:32.829Z,60.37
2019-06-01T09:48:01.297Z,60.36
2019-06-01T09:50:29.757Z,60.19
2019-06-01T09:52:58.253Z,60.72
2019-06-01T09:55:27.535Z,60.98
2019-06-01T09:57:56.955Z,61.03
2019-06-01T10:00:25.675Z,59.81
2019-06-01T10:02:54.422Z,60.19
2019-06-01T10:05:22.909Z,60.10
2019-06-01T10:07:51.392Z,59.90
2019-06-01T10:10:19.875Z,59.81
2019-06-01T10:12:48.373Z,59.79
2019-06-01T10:15:16.833Z,59.90
2019-06-01T10:17:45.312Z,59.54
2019-06-01T10:20:13.778Z,59.55
2019-06-01T10:22:42.279Z,59.77
2019-06-01T10:25:10.754Z,59.16
2019-06-01T10:27:39.235Z,59.01
2019-06-01T10:30:08.072Z,58.71
2019-06-01T10:32:37.881Z,58.99
2019-06-01T10:35:06.732Z,58.83
2019-06-01T10:37:35.403Z,58.82
2019-06-01T10:40:03.876Z,58.36
2019-06-01T10:42:34.013Z,58.33
2019-06-01T10:45:03.019Z,58.35
2019-06-01T10:47:31.745Z,58.37
2019-06-01T10:50:00.256Z,58.72
2019-06-01T10:52:28.744Z,58.44
2019-06-01T10:54:57.494Z,58.09
2019-06-01T10:57:26.006Z,57.79
2019-06-01T10:59:54.761Z,57.99
2019-06-01T11:02:23.223Z,57.76
2019-06-01T11:04:51.711Z,57.80
2019-06-01T11:07:20.228Z,57.74
2019-06-01T11:09:48.695Z,57.42
2019-06-01T11:12:17.774Z,57.53
2019-06-01T11:14:46.546Z,57.27
2019-06-01T11:17:15.016Z,56.89
2019-06-01T11:19:43.778Z,57.04
2019-06-01T11:22:12.248Z,56.76
2019-06-01T11:24:41.553Z,55.90
2019-06-01T11:27:10.275Z,56.11
2019-06-01T11:29:46.034Z,56.77
2019-06-01T11:32:08.955Z,56.48
2019-06-01T11:34:38.473Z,56.49
2019-06-01T11:37:07.121Z,56.24
2019-06-01T11:39:36.340Z,55.83
2019-06-01T11:42:05.205Z,56.29
2019-06-01T11:44:34.707Z,56.05
2019-06-01T11:47:03.198Z,55.24
2019-06-01T11:49:31.712Z,55.35
2019-06-01T11:52:00.224Z,55.55
2019-06-01T11:54:28.735Z,55.42
2019-06-01T11:56:57.295Z,55.63
2019-06-01T11:59:25.756Z,55.57
2019-06-01T12:01:54.495Z,55.20
2019-06-01T12:04:22.975Z,54.91
2019-06-01T12:06:51.543Z,55.18
2019-06-01T12:09:20.019Z,54.60
2019-06-01T12:11:48.535Z,54.85
2019-06-01T12:14:17.029Z,54.96
2019-06-01T12:16:46.794Z,54.44
2019-06-01T12:19:15.380Z,54.69
2019-06-01T12:21:45.234Z,54.63
2019-06-01T12:24:13.849Z,54.26
2019-06-01T12:26:43.487Z,54.23
2019-06-01T12:29:12.050Z,54.08
2019-06-01T12:31:41.647Z,53.64
2019-06-01T12:34:10.112Z,53.64
2019-06-01T12:36:40.574Z,53.68
2019-06-01T12:39:09.296Z,53.24
2019-06-01T12:41:37.767Z,52.97
2019-06-01T12:44:15.603Z,52.73
2019-06-01T12:46:44.351Z,53.04
2019-06-01T12:49:13.098Z,52.77
2019-06-01T12:51:42.547Z,52.22
2019-06-01T12:54:11.416Z,52.31
2019-06-01T12:56:40.772Z,51.50
2019-06-01T12:59:09.355Z,51.55
2019-06-01T13:01:37.813Z,51.38
2019-06-01T13:04:06.296Z,51.59
2019-06-01T13:06:34.781Z,51.80
2019-06-01T13:09:04.395Z,51.48
2019-06-01T13:11:32.863Z,51.53
2019-06-01T13:14:04.245Z,50.99
2019-06-01T13:16:31.653Z,50.46
2019-06-01T13:19:00.150Z,50.45
2019-06-01T13:21:28.619Z,50.28
2019-06-01T13:23:57.128Z,50.13
2019-06-01T13:26:25.615Z,49.51
2019-06-01T13:28:54.136Z,49.85
2019-06-01T13:31:22.928Z,49.94
2019-06-01T13:33:52.385Z,50.13
2019-06-01T13:36:22.103Z,50.22
2019-06-01T13:38:50.862Z,49.93
2019-06-01T13:41:19.354Z,49.38
2019-06-01T13:43:47.845Z,49.75
2019-06-01T13:46:16.308Z,48.97
2019-06-01T13:48:45.550Z,48.54
2019-06-01T13:51:14.063Z,48.64
2019-06-01T13:53:42.551Z,49.01
2019-06-01T13:56:11.078Z,48.84
2019-06-01T13:58:39.615Z,48.11
2019-06-01T14:01:08.319Z,48.19
2019-06-01T14:03:36.954Z,47.95
2019-06-01T14:06:05.411Z,47.90
2019-06-01T14:08:33.904Z,47.67
2019-06-01T14:11:02.390Z,48.09
2019-06-01T14:13:30.941Z,48.12
2019-06-01T14:15:59.414Z,48.37
2019-06-01T14:18:27.905Z,48.88
2019-06-01T14:20:56.410Z,49.30
2019-06-01T14:23:24.888Z,49.29
2019-06-01T14:25:54.264Z,49.38
2019-06-01T14:28:23.038Z,49.49
2019-06-01T14:30:52.299Z,49.18
2019-06-01T14:33:20.830Z,48.12
2019-06-01T14:35:50.410Z,47.06
2019-06-01T14:38:19.001Z,44.83
2019-06-01T14:40:48.847Z,44.42
2019-06-01T14:43:17.475Z,43.40
2019-06-01T14:45:47.346Z,43.25
2019-06-01T14:48:16.058Z,42.91
2019-06-01T14:50:44.645Z,42.00
2019-06-01T14:53:13.156Z,43.22
2019-06-01T14:55:41.628Z,43.01
2019-06-01T14:58:10.142Z,43.94
2019-06-01T15:00:38.597Z,45.64
2019-06-01T15:03:07.180Z,47.16
2019-06-01T15:05:35.687Z,47.22
2019-06-01T15:08:04.175Z,46.00
2019-06-01T15:10:32.683Z,43.89
2019-06-01T15:13:03.258Z,42.39
2019-06-01T15:15:31.434Z,42.46
2019-06-01T15:18:03.903Z,45.12
2019-06-01T15:20:30.380Z,46.87
2019-06-01T15:22:58.872Z,47.34
2019-06-01T15:25:27.361Z,47.49
2019-06-01T15:27:56.873Z,47.82
2019-06-01T15:30:25.630Z,48.62
2019-06-01T15:32:54.350Z,49.03
2019-06-01T15:35:22.850Z,48.93
2019-06-01T15:37:54.730Z,48.93
2019-06-01T15:40:22.005Z,49.25
2019-06-01T15:42:51.812Z,49.27
2019-06-01T15:45:20.903Z,49.07
2019-06-01T15:47:49.376Z,49.11
2019-06-01T15:50:18.520Z,49.35
2019-06-01T15:52:47.212Z,48.94
2019-06-01T15:55:15.715Z,49.47
2019-06-01T15:57:44.222Z,49.30
2019-06-01T16:00:13.785Z,48.89
2019-06-01T16:02:42.726Z,49.05
2019-06-01T16:05:12.086Z,48.99
2019-06-01T16:07:40.807Z,49.03
2019-06-01T16:10:09.293Z,49.06
2019-06-01T16:12:37.781Z,49.15
2019-06-01T16:15:06.354Z,49.07
2019-06-01T16:17:34.811Z,48.79
2019-06-01T16:20:04.121Z,48.81
2019-06-01T16:22:32.568Z,48.60
2019-06-01T16:25:02.451Z,48.38
2019-06-01T16:27:31.801Z,48.31
2019-06-01T16:30:02.066Z,48.32
2019-06-01T16:32:30.722Z,48.28
2019-06-01T16:34:59.243Z,48.32
2019-06-01T16:37:27.716Z,48.62
2019-06-01T16:40:02.527Z,48.92
2019-06-01T16:42:26.398Z,48.59
2019-06-01T16:44:55.307Z,48.25
2019-06-01T16:47:23.879Z,48.38
2019-06-01T16:49:52.697Z,48.45
2019-06-01T16:52:21.152Z,49.05
2019-06-01T16:54:49.664Z,49.38
2019-06-01T16:57:18.516Z,49.44
2019-06-01T16:59:47.010Z,48.96
2019-06-01T17:02:15.474Z,48.75
2019-06-01T17:04:44.039Z,48.84
2019-06-01T17:07:12.885Z,48.67
2019-06-01T17:09:41.446Z,48.90
2019-06-01T17:12:09.903Z,48.65
2019-06-01T17:14:38.402Z,48.75
2019-06-01T17:17:07.513Z,49.11
2019-06-01T17:19:36.034Z,49.05
2019-06-01T17:22:05.600Z,48.85
2019-06-01T17:24:34.560Z,48.84
2019-06-01T17:27:03.964Z,49.31
2019-06-01T17:29:32.599Z,49.30
2019-06-01T17:32:16.775Z,49.30
2019-06-01T17:34:31.345Z,49.61
2019-06-01T17:37:00.610Z,49.49
2019-06-01T17:39:29.127Z,49.37
2019-06-01T17:41:57.943Z,49.35
2019-06-01T17:44:26.717Z,49.24
2019-06-01T17:46:55.205Z,49.49
2019-06-01T17:49:23.663Z,50.30
2019-06-01T17:51:52.157Z,50.85
2019-06-01T17:54:20.614Z,50.95
2019-06-01T17:56:49.095Z,51.26
2019-06-01T17:59:17.589Z,51.41
2019-06-01T18:01:46.049Z,51.77
2019-06-01T18:04:14.540Z,51.81
2019-06-01T18:06:43.044Z,51.56
2019-06-01T18:09:12.267Z,51.58
2019-06-01T18:11:41.134Z,51.72
2019-06-01T18:14:10.276Z,51.72
2019-06-01T18:16:38.949Z,51.68
2019-06-01T18:19:08.382Z,52.06
2019-06-01T18:21:37.031Z,52.28
2019-06-01T18:24:07.570Z,52.47
2019-06-01T18:26:35.716Z,52.68
2019-06-01T18:29:04.477Z,52.82
2019-06-01T18:31:33.175Z,52.82
2019-06-01T18:34:03.194Z,52.86
2019-06-01T18:36:31.823Z,52.59
2019-06-01T18:39:00.316Z,52.67
2019-06-01T18:41:28.814Z,52.75
2019-06-01T18:43:57.299Z,52.93
2019-06-01T18:46:26.007Z,52.97
2019-06-01T18:48:54.492Z,53.04
2019-06-01T18:51:23.262Z,53.08
2019-06-01T18:53:51.736Z,53.06
2019-06-01T18:56:20.241Z,53.18
2019-06-01T18:58:48.740Z,53.19
2019-06-01T19:01:20.858Z,53.08
2019-06-01T19:03:47.910Z,53.04
2019-06-01T19:06:16.401Z,53.08
2019-06-01T19:08:44.878Z,53.00
2019-06-01T19:11:29.365Z,53.03
2019-06-01T19:13:43.597Z,53.17
2019-06-01T19:16:12.239Z,53.29
2019-06-01T19:18:40.690Z,53.34
2019-06-01T19:21:09.163Z,53.44
2019-06-01T19:23:37.639Z,53.53
2019-06-01T19:26:10.081Z,53.91
2019-06-01T19:28:36.382Z,54.07
2019-06-01T19:31:04.885Z,53.86
2019-06-01T19:33:33.699Z,53.69
2019-06-01T19:36:02.518Z,53.75
2019-06-01T19:38:30.978Z,53.75
2019-06-01T19:40:59.860Z,53.73
2019-06-01T19:43:28.322Z,53.84
2019-06-01T19:45:56.814Z,53.65
2019-06-01T19:48:25.300Z,53.75
2019-06-01T19:50:53.833Z,53.65
2019-06-01T19:53:22.350Z,53.61
2019-06-01T19:55:50.835Z,53.64
2019-06-01T19:58:19.520Z,53.53
2019-06-01T20:00:48.094Z,53.64
2019-06-01T20:03:20.200Z,53.78
2019-06-01T20:05:46.804Z,53.76
2019-06-01T20:08:16.248Z,53.83
2019-06-01T20:10:44.754Z,54.00
2019-06-01T20:13:13.206Z,53.99
2019-06-01T20:15:41.729Z,54.01
2019-06-01T20:18:10.641Z,54.00
2019-06-01T20:20:39.547Z,53.99
2019-06-01T20:23:08.026Z,54.10
2019-06-01T20:25:36.484Z,54.31
2019-06-01T20:28:04.961Z,54.46
2019-06-01T20:30:33.775Z,54.62
2019-06-01T20:33:02.254Z,54.65
2019-06-01T20:35:31.060Z,54.71
2019-06-01T20:38:00.146Z,54.76
2019-06-01T20:40:28.622Z,54.67
2019-06-01T20:42:57.465Z,54.54
2019-06-01T20:45:25.955Z,54.61
2019-06-01T20:47:54.423Z,54.70
2019-06-01T20:50:22.948Z,54.72
2019-06-01T20:52:51.399Z,54.80
2019-06-01T20:55:21.231Z,54.70
2019-06-01T20:57:49.795Z,54.38
2019-06-01T21:00:19.627Z,54.45
2019-06-01T21:02:48.535Z,54.73
2019-06-01T21:05:17.929Z,54.95
2019-06-01T21:07:46.621Z,55.14
2019-06-01T21:10:16.180Z,55.33
2019-06-01T21:12:46.061Z,55.45
2019-06-01T21:15:15.184Z,55.46
2019-06-01T21:17:43.774Z,55.57
2019-06-01T21:20:12.354Z,55.66
2019-06-01T21:22:40.851Z,55.82
2019-06-01T21:25:09.400Z,55.94
2019-06-01T21:27:37.864Z,56.15
2019-06-01T21:30:06.515Z,56.15
2019-06-01T21:32:35.013Z,56.03
2019-06-01T21:35:03.495Z,56.19
2019-06-01T21:37:31.989Z,56.25
2019-06-01T21:40:00.762Z,56.15
2019-06-01T21:42:29.261Z,56.10
2019-06-01T21:44:57.773Z,55.94
2019-06-01T21:47:26.253Z,55.90
2019-06-01T21:49:55.015Z,55.87
2019-06-01T21:52:24.246Z,56.06
2019-06-01T21:54:52.862Z,55.92
2019-06-01T21:57:22.333Z,55.91
2019-06-01T21:59:51.157Z,55.96
2019-06-01T22:02:20.946Z,56.07
2019-06-01T22:04:49.599Z,56.14
2019-06-01T22:07:19.188Z,56.26
2019-06-01T22:09:48.062Z,56.46
2019-06-01T22:12:17.240Z,56.52
2019-06-01T22:14:46.035Z,56.62
2019-06-01T22:17:14.622Z,56.75
2019-06-01T22:19:43.111Z,56.95
2019-06-01T22:22:11.579Z,56.90
2019-06-01T22:24:40.384Z,56.94
2019-06-01T22:27:09.032Z,57.00
2019-06-01T22:29:37.724Z,56.92
2019-06-01T22:32:06.214Z,57.08
2019-06-01T22:34:34.685Z,57.27
2019-06-01T22:37:03.177Z,57.41
2019-06-01T22:39:31.675Z,57.54
2019-06-01T22:42:00.169Z,57.46
2019-06-01T22:44:28.625Z,57.24
2019-06-01T22:46:57.087Z,57.27
2019-06-01T22:49:26.782Z,57.38
2019-06-01T22:51:55.321Z,57.46
2019-06-01T22:54:25.029Z,57.71
2019-06-01T22:56:53.688Z,58.00
2019-06-01T22:59:22.509Z,58.10
2019-06-01T23:01:51.624Z,57.92
2019-06-01T23:04:20.937Z,57.81
2019-06-01T23:06:49.479Z,57.87
2019-06-01T23:09:18.008Z,58.03
2019-06-01T23:11:46.476Z,58.17
2019-06-01T23:14:15.198Z,58.36
2019-06-01T23:16:44.008Z,58.52
2019-06-01T23:19:12.786Z,58.36
2019-06-01T23:21:41.267Z,58.56
2019-06-01T23:24:09.745Z,58.50
2019-06-01T23:26:38.547Z,58.54
2019-06-01T23:29:07.030Z,58.94
2019-06-01T23:31:35.804Z,59.07
2019-06-01T23:34:04.621Z,59.06
2019-06-01T23:36:33.386Z,59.12
2019-06-01T23:39:02.178Z,59.21
2019-06-01T23:41:30.878Z,59.17
2019-06-01T23:44:11.309Z,59.23
2019-06-01T23:46:31.078Z,59.40
2019-06-01T23:48:59.664Z,59.52
2019-06-01T23:51:29.542Z,59.85
2019-06-01T23:53:58.183Z,60.13
2019-06-01T23:56:27.736Z,60.36
2019-06-01T23:58:56.295Z,60.55
